Time;durP1;ratioP1;P1;durP2;ratioP2;P2;SDS_P1;SDS_P2;PMS_P1;PMS_P2;Temp;Humidity;BMP_temperature;BMP_pressure;BME280_temperature;BME280_humidity;BME280_pressure;Samples;Min_cycle;Max_cycle;Signal;HPM_P1;HPM_P2
2021/03/19 00:01:55;;;;;;;26.67;11.67;;;4.40;88.90;;;;;;4958119;28;20247;-85
2021/03/19 00:04:20;;;;;;;19.10;9.30;;;4.40;89.90;;;;;;4957569;28;20180;-85
2021/03/19 00:06:47;;;;;;;13.83;6.97;;;4.30;90.90;;;;;;4957439;28;20845;-85
2021/03/19 00:09:13;;;;;;;17.95;6.15;;;4.20;91.90;;;;;;4957520;28;20470;-85
2021/03/19 00:11:39;;;;;;;14.57;6.80;;;3.90;92.90;;;;;;4957533;28;20192;-85
2021/03/19 00:14:07;;;;;;;18.30;6.72;;;3.80;93.70;;;;;;4957525;28;20778;-85
2021/03/19 00:16:34;;;;;;;11.82;6.50;;;3.70;94.30;;;;;;4957479;28;20192;-85
2021/03/19 00:19:00;;;;;;;14.18;6.50;;;3.70;94.60;;;;;;4957252;28;20600;-85
2021/03/19 00:21:27;;;;;;;14.45;6.25;;;3.70;95.00;;;;;;4957417;28;20195;-85
2021/03/19 00:23:53;;;;;;;17.25;7.68;;;3.60;95.10;;;;;;4957354;28;20665;-84
2021/03/19 00:26:19;;;;;;;15.25;6.85;;;3.70;95.40;;;;;;4956599;28;20219;-85
2021/03/19 00:28:45;;;;;;;10.30;6.37;;;3.70;95.00;;;;;;4957014;28;20210;-85
2021/03/19 00:31:10;;;;;;;11.30;6.10;;;3.80;95.10;;;;;;4956982;28;20431;-85
2021/03/19 00:33:36;;;;;;;14.13;6.10;;;3.90;95.00;;;;;;4957196;28;20561;-85
2021/03/19 00:36:02;;;;;;;14.03;5.83;;;3.80;94.70;;;;;;4956886;28;20408;-85
2021/03/19 00:38:28;;;;;;;14.65;6.90;;;3.90;94.50;;;;;;4956862;28;20857;-85
2021/03/19 00:40:54;;;;;;;15.73;5.80;;;3.80;94.40;;;;;;4956859;28;20282;-85
2021/03/19 00:43:20;;;;;;;14.07;6.73;;;3.90;94.40;;;;;;4957096;28;20183;-85
2021/03/19 00:45:46;;;;;;;14.50;6.60;;;3.90;94.50;;;;;;4957607;28;20416;-85
2021/03/19 00:48:12;;;;;;;15.10;6.80;;;4.00;94.40;;;;;;4957300;28;20465;-85
2021/03/19 00:50:40;;;;;;;13.43;6.60;;;4.00;94.20;;;;;;4956988;28;20935;-85
2021/03/19 00:53:06;;;;;;;21.27;7.78;;;4.10;94.30;;;;;;4957138;28;20198;-85
2021/03/19 00:55:33;;;;;;;15.60;6.72;;;4.10;94.20;;;;;;4957207;28;20167;-85
2021/03/19 00:57:59;;;;;;;35.10;6.60;;;4.10;94.10;;;;;;4956945;28;20187;-85
2021/03/19 01:00:26;;;;;;;15.45;7.68;;;4.10;94.10;;;;;;4956800;28;20176;-85
2021/03/19 01:02:52;;;;;;;17.83;7.82;;;4.20;93.80;;;;;;4956610;28;20222;-85
2021/03/19 01:05:34;;;;;;;16.73;7.50;;;4.20;93.50;;;;;;4956772;28;20172;-85
2021/03/19 01:08:01;;;;;;;18.70;8.23;;;4.20;93.60;;;;;;4957085;28;21198;-85
2021/03/19 01:10:30;;;;;;;26.38;7.38;;;4.20;93.50;;;;;;4956902;28;20171;-85
2021/03/19 01:12:56;;;;;;;12.65;7.10;;;4.30;93.50;;;;;;4957055;28;20862;-85
2021/03/19 01:15:23;;;;;;;10.75;7.13;;;4.30;93.60;;;;;;4957176;28;20264;-85
2021/03/19 01:17:49;;;;;;;14.30;7.43;;;4.30;93.30;;;;;;4956583;28;20183;-85
2021/03/19 01:20:18;;;;;;;12.63;7.03;;;4.30;93.40;;;;;;4956716;28;20180;-84
2021/03/19 01:22:47;;;;;;;17.40;8.48;;;4.30;93.30;;;;;;4956431;28;20210;-85
2021/03/19 01:25:17;;;;;;;15.73;7.53;;;4.30;93.20;;;;;;4956638;28;20180;-85
2021/03/19 01:27:43;;;;;;;23.70;7.75;;;4.20;93.10;;;;;;4956586;28;20719;-84
2021/03/19 01:30:13;;;;;;;31.92;11.18;;;4.20;93.20;;;;;;4956865;28;20176;-85
2021/03/19 01:32:40;;;;;;;35.97;12.05;;;4.20;93.30;;;;;;4956430;28;20609;-85
2021/03/19 01:35:06;;;;;;;24.63;9.80;;;4.10;93.40;;;;;;4956714;28;20265;-85
2021/03/19 01:37:32;;;;;;;32.25;11.88;;;4.10;93.60;;;;;;4958992;28;20188;-85
2021/03/19 01:39:58;;;;;;;34.53;12.37;;;4.00;93.70;;;;;;4960248;28;20226;-85
2021/03/19 01:42:24;;;;;;;41.63;13.90;;;4.00;93.70;;;;;;4959773;28;20529;-85
2021/03/19 01:45:07;;;;;;;40.30;12.83;;;4.00;93.70;;;;;;4960346;28;20430;-85
2021/03/19 01:48:11;;;;;;;34.40;13.00;;;4.00;93.70;;;;;;4991958;28;20490;-85
2021/03/19 01:51:14;;;;;;;47.15;13.25;;;4.00;93.50;;;;;;4992049;28;20659;-84
2021/03/19 01:54:18;;;;;;;42.47;11.02;;;4.00;93.60;;;;;;4992429;28;20334;-85
2021/03/19 01:57:21;;;;;;;21.30;9.38;;;3.90;93.70;;;;;;4992259;28;20172;-84
2021/03/19 02:00:24;;;;;;;24.08;8.25;;;3.90;93.60;;;;;;4959636;28;20648;-85
2021/03/19 02:03:28;;;;;;;19.25;7.90;;;3.90;93.80;;;;;;4959621;28;20175;-85
2021/03/19 02:06:31;;;;;;;18.15;9.05;;;3.90;94.00;;;;;;4959698;28;20267;-84
2021/03/19 02:09:34;;;;;;;16.70;7.47;;;3.80;94.10;;;;;;4959956;28;20678;-85
2021/03/19 02:12:37;;;;;;;15.43;7.45;;;3.80;94.40;;;;;;4959501;28;20215;-85
2021/03/19 02:15:40;;;;;;;17.05;8.02;;;3.80;94.50;;;;;;4959886;28;20235;-86
2021/03/19 02:18:44;;;;;;;22.90;9.68;;;3.70;94.60;;;;;;4959397;28;20175;-85
2021/03/19 02:21:47;;;;;;;22.48;9.68;;;3.70;94.90;;;;;;4959366;28;20206;-85
2021/03/19 02:24:50;;;;;;;19.88;9.35;;;3.60;95.10;;;;;;4959769;28;20203;-85
2021/03/19 02:27:53;;;;;;;16.17;7.70;;;3.60;95.20;;;;;;4959691;28;20579;-85
2021/03/19 02:30:57;;;;;;;18.33;8.20;;;3.50;95.40;;;;;;4959360;28;20187;-85
2021/03/19 02:33:23;;;;;;;18.25;7.38;;;3.50;95.30;;;;;;4959258;28;20179;-85
2021/03/19 02:35:57;;;;;;;14.43;7.83;;;3.50;94.90;;;;;;4959190;28;20609;-85
2021/03/19 02:38:24;;;;;;;21.20;8.20;;;3.50;95.00;;;;;;4958913;28;20853;-85
2021/03/19 02:40:50;;;;;;;22.67;10.25;;;3.50;95.00;;;;;;4959499;28;20317;-85
2021/03/19 02:43:17;;;;;;;16.85;8.23;;;3.50;95.30;;;;;;4959168;28;20187;-85
2021/03/19 02:45:42;;;;;;;18.80;9.40;;;3.50;95.20;;;;;;4959559;28;20199;-83
2021/03/19 02:48:13;;;;;;;28.80;10.80;;;3.50;95.00;;;;;;4961366;28;20204;-84
2021/03/19 02:50:40;;;;;;;22.58;9.07;;;3.60;94.70;;;;;;4962481;28;20474;-83
2021/03/19 02:53:12;;;;;;;22.00;9.57;;;3.60;94.70;;;;;;4961911;28;20180;-82
2021/03/19 02:55:38;;;;;;;20.60;8.35;;;3.60;94.80;;;;;;4962046;28;20699;-83
2021/03/19 02:58:03;;;;;;;22.50;9.97;;;3.60;95.00;;;;;;4961675;28;20175;-83
2021/03/19 03:00:29;;;;;;;16.10;8.33;;;3.70;94.90;;;;;;4961460;28;20179;-82
2021/03/19 03:02:55;;;;;;;16.23;7.63;;;3.70;95.00;;;;;;4961777;28;20179;-82
2021/03/19 03:05:21;;;;;;;16.27;9.83;;;3.70;95.20;;;;;;4962015;28;20195;-82
2021/03/19 03:07:46;;;;;;;19.25;9.85;;;3.60;95.20;;;;;;4961358;28;20207;-82
2021/03/19 03:10:16;;;;;;;20.13;9.50;;;3.60;95.20;;;;;;4961704;28;20179;-82
2021/03/19 03:12:42;;;;;;;22.30;9.55;;;3.50;95.40;;;;;;4961847;28;20435;-83
2021/03/19 03:15:11;;;;;;;24.27;10.80;;;3.50;95.40;;;;;;4961722;28;20182;-82
2021/03/19 03:17:36;;;;;;;26.27;9.45;;;3.50;95.60;;;;;;4961054;28;20184;-82
2021/03/19 03:20:07;;;;;;;27.20;10.30;;;3.50;95.50;;;;;;4961321;28;20176;-82
2021/03/19 03:22:34;;;;;;;18.17;10.85;;;3.60;95.50;;;;;;4960825;28;20439;-84
2021/03/19 03:25:00;;;;;;;25.52;10.68;;;3.60;95.40;;;;;;4961691;28;20227;-83
2021/03/19 03:27:26;;;;;;;24.77;10.80;;;3.50;95.50;;;;;;4961557;28;20219;-82
2021/03/19 03:29:52;;;;;;;18.25;9.63;;;3.60;95.20;;;;;;4961204;28;20510;-82
2021/03/19 03:32:18;;;;;;;25.23;11.23;;;3.60;95.20;;;;;;4960717;28;20230;-83
2021/03/19 03:34:43;;;;;;;23.90;11.63;;;3.60;95.10;;;;;;4961393;28;20427;-83
2021/03/19 03:37:09;;;;;;;26.17;11.07;;;3.60;94.90;;;;;;4993751;28;20415;-82
2021/03/19 03:39:35;;;;;;;21.92;10.48;;;3.60;94.90;;;;;;4978931;28;20498;-82
2021/03/19 03:42:04;;;;;;;30.10;11.48;;;3.70;94.90;;;;;;4960896;28;20210;-82
2021/03/19 03:44:32;;;;;;;19.48;10.75;;;3.70;94.90;;;;;;4960934;28;20234;-83
2021/03/19 03:46:58;;;;;;;27.92;10.88;;;3.80;94.80;;;;;;4960232;28;20171;-82
2021/03/19 03:49:24;;;;;;;30.55;10.63;;;3.70;94.60;;;;;;4960880;28;20183;-82
2021/03/19 03:51:51;;;;;;;24.25;11.15;;;3.70;94.60;;;;;;4960956;28;20205;-83
2021/03/19 03:54:17;;;;;;;21.15;11.80;;;3.70;94.80;;;;;;4960815;28;20172;-83
2021/03/19 03:56:43;;;;;;;30.45;12.93;;;3.70;94.60;;;;;;4958993;28;20214;-83
2021/03/19 03:59:09;;;;;;;23.20;10.40;;;3.80;94.20;;;;;;4957453;28;20183;-84
2021/03/19 04:01:38;;;;;;;16.75;9.15;;;3.70;94.10;;;;;;4957413;28;20539;-83
2021/03/19 04:04:05;;;;;;;24.95;11.98;;;3.80;94.00;;;;;;4957523;28;20178;-83
2021/03/19 04:06:30;;;;;;;17.38;9.40;;;3.70;94.10;;;;;;4957454;28;20648;-83
2021/03/19 04:08:56;;;;;;;22.77;10.63;;;3.80;94.10;;;;;;4962359;28;20227;-82
2021/03/19 04:11:22;;;;;;;15.80;9.07;;;3.80;94.00;;;;;;4962967;28;20215;-82
2021/03/19 04:13:50;;;;;;;20.27;9.98;;;3.80;94.00;;;;;;4963891;28;20817;-82
2021/03/19 04:16:17;;;;;;;26.52;10.10;;;3.80;93.70;;;;;;4962566;28;20172;-82
2021/03/19 04:18:43;;;;;;;20.15;10.35;;;3.80;94.10;;;;;;4963789;28;20187;-82
2021/03/19 04:21:11;;;;;;;23.85;11.32;;;3.80;94.00;;;;;;4962890;28;20199;-83
2021/03/19 04:23:40;;;;;;;23.63;12.15;;;3.80;94.20;;;;;;4958551;29;20195;-82
2021/03/19 04:26:16;;;;;;;21.75;11.32;;;3.80;94.10;;;;;;4953876;28;20532;-82
2021/03/19 04:28:42;;;;;;;27.58;11.43;;;3.70;94.30;;;;;;4948670;28;20200;-82
2021/03/19 04:31:08;;;;;;;25.33;10.47;;;3.70;94.20;;;;;;4954083;28;20606;-82
2021/03/19 04:33:34;;;;;;;25.83;12.10;;;3.80;93.90;;;;;;4953413;28;20490;-82
2021/03/19 04:36:18;;;;;;;19.02;11.10;;;3.80;94.10;;;;;;4950555;29;20169;-82
2021/03/19 04:38:45;;;;;;;19.50;9.85;;;3.70;94.30;;;;;;4950676;28;20283;-82
2021/03/19 04:41:11;;;;;;;20.63;9.90;;;3.70;94.40;;;;;;4950991;28;20555;-82
2021/03/19 04:43:37;;;;;;;26.17;11.52;;;3.70;94.50;;;;;;4952605;29;20177;-82
2021/03/19 04:46:03;;;;;;;33.13;11.77;;;3.70;94.40;;;;;;4948965;29;20172;-82
2021/03/19 04:48:29;;;;;;;21.42;11.23;;;3.70;94.50;;;;;;4954025;28;20455;-82
2021/03/19 04:50:54;;;;;;;33.93;12.67;;;3.80;94.30;;;;;;4957898;28;20219;-82
2021/03/19 04:53:20;;;;;;;22.93;12.13;;;3.70;94.30;;;;;;4951906;28;20443;-82
2021/03/19 04:55:46;;;;;;;26.07;11.80;;;3.70;94.30;;;;;;4953812;28;20427;-82
2021/03/19 04:58:12;;;;;;;24.50;11.13;;;3.70;94.10;;;;;;4952761;28;20180;-82
2021/03/19 05:00:38;;;;;;;30.10;12.13;;;3.70;93.80;;;;;;4950945;28;20202;-82
2021/03/19 05:03:04;;;;;;;27.80;12.00;;;3.70;94.00;;;;;;4950891;28;20512;-82
2021/03/19 05:05:33;;;;;;;23.60;12.70;;;3.80;94.00;;;;;;4957656;28;20515;-82
2021/03/19 05:08:00;;;;;;;23.70;11.95;;;3.80;94.00;;;;;;4962229;28;20210;-82
2021/03/19 05:10:29;;;;;;;25.48;11.70;;;3.80;94.10;;;;;;4960790;28;20226;-83
2021/03/19 05:12:55;;;;;;;22.17;10.98;;;3.70;94.10;;;;;;4962944;28;20172;-83
2021/03/19 05:15:24;;;;;;;22.20;12.48;;;3.70;94.30;;;;;;4962052;28;20174;-84
2021/03/19 05:17:50;;;;;;;23.02;12.23;;;3.70;94.40;;;;;;4961434;28;20184;-83
2021/03/19 05:20:17;;;;;;;30.13;11.87;;;3.70;94.50;;;;;;4961524;28;20197;-83
2021/03/19 05:22:43;;;;;;;26.73;12.68;;;3.80;94.20;;;;;;4961336;28;20198;-84
2021/03/19 05:25:12;;;;;;;27.37;12.37;;;3.80;94.30;;;;;;4961020;28;20180;-83
2021/03/19 05:27:39;;;;;;;28.08;13.35;;;3.80;93.90;;;;;;4961149;28;20478;-83
2021/03/19 05:30:07;;;;;;;22.17;12.00;;;3.80;93.60;;;;;;4961170;28;20183;-83
2021/03/19 05:32:33;;;;;;;30.02;13.68;;;3.80;93.90;;;;;;4961050;28;20188;-83
2021/03/19 05:34:59;;;;;;;22.50;11.87;;;3.80;94.10;;;;;;4960814;28;20538;-83
2021/03/19 05:37:25;;;;;;;29.42;13.13;;;3.80;94.10;;;;;;4960693;28;20496;-84
2021/03/19 05:39:51;;;;;;;22.70;12.20;;;3.80;93.90;;;;;;4960925;28;20179;-83
2021/03/19 05:42:37;;;;;;;32.20;14.10;;;3.80;93.80;;;;;;4959933;28;20442;-84
2021/03/19 05:45:12;;;;;;;21.90;11.57;;;3.70;93.90;;;;;;4960314;28;20411;-83
2021/03/19 05:47:38;;;;;;;30.52;12.10;;;3.70;94.00;;;;;;4993647;28;20199;-84
2021/03/19 05:50:09;;;;;;;25.70;12.07;;;3.70;93.90;;;;;;4960968;28;20180;-83
2021/03/19 05:52:36;;;;;;;28.63;13.85;;;3.70;93.80;;;;;;4960763;28;20470;-84
2021/03/19 05:55:17;;;;;;;30.75;13.25;;;3.80;93.80;;;;;;4955499;28;20183;-83
2021/03/19 05:57:44;;;;;;;23.08;12.50;;;3.80;93.90;;;;;;4957629;28;20175;-83
2021/03/19 06:00:20;;;;;;;26.77;13.43;;;3.80;93.90;;;;;;4960540;28;20258;-83
2021/03/19 06:02:46;;;;;;;30.00;15.38;;;3.80;93.90;;;;;;4947902;29;20271;-83
2021/03/19 06:05:18;;;;;;;26.93;12.60;;;3.80;94.00;;;;;;4942049;29;20200;-83
2021/03/19 06:07:57;;;;;;;31.95;12.25;;;3.90;93.70;;;;;;4941864;29;20467;-83
2021/03/19 06:10:39;;;;;;;26.20;13.80;;;3.90;93.60;;;;;;4956602;28;20242;-84
2021/03/19 06:13:05;;;;;;;28.90;13.38;;;4.00;93.50;;;;;;4970468;28;20172;-83
2021/03/19 06:15:43;;;;;;;33.63;14.80;;;4.00;93.40;;;;;;4951850;28;20219;-84
2021/03/19 06:18:33;;;;;;;26.15;12.80;;;4.00;93.20;;;;;;4949233;28;21014;-84
2021/03/19 06:21:14;;;;;;;25.75;13.05;;;4.00;92.90;;;;;;4952080;28;20260;-83
2021/03/19 06:23:47;;;;;;;34.03;13.75;;;4.00;92.60;;;;;;4958336;28;20274;-84
2021/03/19 06:26:34;;;;;;;33.55;14.35;;;3.90;92.40;;;;;;4949141;28;20164;-84
2021/03/19 06:29:32;;;;;;;41.88;15.07;;;3.90;92.70;;;;;;4952796;28;20660;-83
2021/03/19 06:32:07;;;;;;;28.65;13.57;;;3.80;93.00;;;;;;4940619;28;20204;-84
2021/03/19 06:34:33;;;;;;;33.75;14.10;;;3.80;93.50;;;;;;4959203;28;20168;-84
2021/03/19 06:37:03;;;;;;;33.42;13.63;;;3.70;93.60;;;;;;4955407;29;20259;-84
2021/03/19 06:39:43;;;;;;;24.13;12.88;;;3.80;93.80;;;;;;4953079;28;20191;-84
2021/03/19 06:42:24;;;;;;;30.67;13.80;;;3.80;93.80;;;;;;4943916;29;20200;-84
2021/03/19 06:45:05;;;;;;;36.50;13.98;;;3.80;94.30;;;;;;4972465;28;20845;-84
2021/03/19 06:47:39;;;;;;;28.30;13.98;;;3.90;94.20;;;;;;4958488;28;20198;-84
2021/03/19 06:50:33;;;;;;;27.23;13.40;;;3.80;94.40;;;;;;4981793;28;20254;-84
2021/03/19 06:53:27;;;;;;;32.55;13.52;;;3.80;95.00;;;;;;4957422;28;20643;-84
2021/03/19 06:56:13;;;;;;;34.25;15.70;;;3.90;95.40;;;;;;4947598;28;20246;-84
2021/03/19 06:58:47;;;;;;;32.42;14.13;;;3.80;95.20;;;;;;4950109;29;20177;-83
2021/03/19 07:01:33;;;;;;;32.35;18.02;;;3.80;95.20;;;;;;4939422;29;20208;-83
2021/03/19 07:04:34;;;;;;;32.55;16.10;;;3.80;95.70;;;;;;4938917;29;20196;-83
2021/03/19 07:07:03;;;;;;;35.65;15.73;;;3.80;96.00;;;;;;4917883;29;20184;-83
2021/03/19 07:09:31;;;;;;;43.08;19.08;;;3.80;96.20;;;;;;4939267;29;20357;-81
2021/03/19 07:12:34;;;;;;;35.58;17.17;;;3.90;96.40;;;;;;4939402;29;20188;-83
2021/03/19 07:15:23;;;;;;;47.53;19.27;;;3.90;96.40;;;;;;4940411;29;20247;-83
2021/03/19 07:17:58;;;;;;;42.38;17.10;;;3.80;96.50;;;;;;4939769;29;20239;-83
2021/03/19 07:21:03;;;;;;;38.88;17.77;;;3.90;97.00;;;;;;4940716;29;20168;-84
2021/03/19 07:23:58;;;;;;;41.47;18.33;;;4.00;97.10;;;;;;4941267;29;20183;-84
2021/03/19 07:26:30;;;;;;;39.30;17.83;;;4.10;96.50;;;;;;4940791;29;20169;-83
2021/03/19 07:29:33;;;;;;;62.58;18.40;;;4.20;96.40;;;;;;4941254;29;20211;-84
2021/03/19 07:32:06;;;;;;;40.10;19.17;;;4.20;96.40;;;;;;4941888;29;20203;-84
2021/03/19 07:34:48;;;;;;;37.20;18.25;;;4.10;96.50;;;;;;4940055;29;20295;-82
2021/03/19 07:37:23;;;;;;;39.63;18.02;;;4.20;96.80;;;;;;4942610;29;20665;-85
2021/03/19 07:40:10;;;;;;;41.80;19.15;;;4.30;96.40;;;;;;4942377;29;20262;-83
2021/03/19 07:42:55;;;;;;;39.70;18.10;;;4.30;95.80;;;;;;4942166;29;20215;-83
2021/03/19 07:45:50;;;;;;;40.22;19.50;;;4.40;95.80;;;;;;4941332;29;20172;-82
2021/03/19 07:48:22;;;;;;;47.13;20.80;;;4.40;96.10;;;;;;4939829;29;20189;-84
2021/03/19 07:50:57;;;;;;;45.38;19.73;;;4.40;96.30;;;;;;4941892;29;20192;-85
2021/03/19 07:54:07;;;;;;;42.05;17.90;;;4.50;96.10;;;;;;4942834;29;20172;-87
2021/03/19 07:56:51;;;;;;;40.85;16.77;;;4.40;95.50;;;;;;4940452;29;20195;-87
2021/03/19 07:59:25;;;;;;;41.85;17.05;;;4.50;95.60;;;;;;4941656;29;20543;-86
2021/03/19 08:02:09;;;;;;;36.05;15.77;;;4.50;95.30;;;;;;4938378;29;20259;-86
2021/03/19 08:04:56;;;;;;;35.78;17.05;;;4.60;95.00;;;;;;4955804;29;20161;-86
2021/03/19 08:07:40;;;;;;;37.55;18.15;;;4.50;95.50;;;;;;4938890;29;20227;-84
2021/03/19 08:10:22;;;;;;;48.00;19.75;;;4.40;95.80;;;;;;4938939;29;20168;-85
2021/03/19 08:13:06;;;;;;;44.85;19.42;;;4.40;96.10;;;;;;4937497;29;20183;-84
2021/03/19 08:15:53;;;;;;;41.65;19.27;;;4.30;96.20;;;;;;4982720;28;20175;-84
2021/03/19 08:18:44;;;;;;;41.22;18.83;;;4.30;97.10;;;;;;4968456;28;20172;-84
2021/03/19 08:21:19;;;;;;;43.67;18.90;;;4.20;97.00;;;;;;4956679;28;20192;-84
2021/03/19 08:24:08;;;;;;;39.03;18.05;;;4.10;97.40;;;;;;4958726;28;20175;-84
2021/03/19 08:26:42;;;;;;;42.92;18.80;;;4.10;97.40;;;;;;4950443;28;20326;-84
2021/03/19 08:29:40;;;;;;;48.13;15.57;;;4.20;98.20;;;;;;4954903;28;20222;-84
2021/03/19 08:32:34;;;;;;;37.53;17.30;;;4.10;97.20;;;;;;4955088;28;20204;-84
2021/03/19 08:35:29;;;;;;;42.10;16.58;;;4.10;97.30;;;;;;4938691;29;20179;-84
2021/03/19 08:38:06;;;;;;;45.83;18.38;;;4.20;97.70;;;;;;4948598;28;20213;-84
2021/03/19 08:40:37;;;;;;;43.00;18.02;;;4.20;97.20;;;;;;4956985;28;20704;-84
2021/03/19 08:43:07;;;;;;;41.15;17.35;;;4.10;97.00;;;;;;4957168;28;20258;-83
2021/03/19 08:45:34;;;;;;;50.38;19.05;;;4.00;97.50;;;;;;4953666;28;20203;-84
2021/03/19 08:48:02;;;;;;;45.03;17.95;;;4.10;98.00;;;;;;4953773;28;20535;-84
2021/03/19 08:50:36;;;;;;;49.42;18.08;;;4.20;98.30;;;;;;4976027;28;20229;-84
2021/03/19 08:53:14;;;;;;;41.58;17.02;;;4.20;98.10;;;;;;4975707;28;20163;-84
2021/03/19 08:55:49;;;;;;;33.55;15.07;;;4.20;97.70;;;;;;4973615;28;20174;-84
2021/03/19 08:58:48;;;;;;;41.92;15.10;;;4.20;97.70;;;;;;4956715;28;20258;-84
2021/03/19 09:01:46;;;;;;;38.47;16.20;;;4.20;98.60;;;;;;4972079;28;20562;-84
2021/03/19 09:04:12;;;;;;;42.50;16.08;;;4.50;98.80;;;;;;4940045;29;20173;-84
2021/03/19 09:06:58;;;;;;;36.57;16.97;;;4.60;97.70;;;;;;4937084;29;20181;-84
2021/03/19 09:09:37;;;;;;;41.88;16.20;;;4.50;96.60;;;;;;4936568;29;21048;-84
2021/03/19 09:12:07;;;;;;;37.08;16.02;;;4.40;97.30;;;;;;4936768;29;20200;-85
2021/03/19 09:14:37;;;;;;;33.17;13.68;;;4.40;97.60;;;;;;4937030;29;20484;-84
2021/03/19 09:17:03;;;;;;;30.35;13.80;;;4.40;97.30;;;;;;4936979;29;20288;-84
2021/03/19 09:19:32;;;;;;;32.17;14.25;;;4.30;97.90;;;;;;4937160;29;20184;-84
2021/03/19 09:22:24;;;;;;;33.50;13.18;;;4.30;98.00;;;;;;4937014;29;20200;-84
2021/03/19 09:25:12;;;;;;;30.10;12.00;;;4.50;98.00;;;;;;4922099;29;20271;-84
2021/03/19 09:27:39;;;;;;;37.22;14.00;;;4.40;96.60;;;;;;4936646;29;20212;-84
2021/03/19 09:30:08;;;;;;;34.58;14.52;;;4.40;97.10;;;;;;4937512;29;20169;-84
2021/03/19 09:32:43;;;;;;;34.90;13.85;;;4.50;97.30;;;;;;4936754;29;20608;-84
2021/03/19 09:35:14;;;;;;;32.13;12.57;;;4.50;97.00;;;;;;4937046;29;20219;-84
2021/03/19 09:37:40;;;;;;;29.75;12.10;;;4.50;96.30;;;;;;4944572;29;20197;-84
2021/03/19 09:40:08;;;;;;;27.07;11.90;;;4.50;95.90;;;;;;4936821;29;20240;-84
2021/03/19 09:42:41;;;;;;;30.90;13.45;;;4.30;94.70;;;;;;4936748;29;20827;-84
2021/03/19 09:45:06;;;;;;;31.17;12.80;;;4.30;95.90;;;;;;4937152;29;20232;-84
2021/03/19 09:47:50;;;;;;;28.00;12.07;;;4.40;96.10;;;;;;4937108;29;20307;-84
2021/03/19 09:50:22;;;;;;;26.35;11.40;;;4.40;95.00;;;;;;4937203;29;20165;-84
2021/03/19 09:53:01;;;;;;;27.88;12.80;;;4.50;94.60;;;;;;4936988;29;20641;-84
2021/03/19 09:55:38;;;;;;;28.77;12.07;;;4.60;94.60;;;;;;4936913;29;20188;-84
2021/03/19 09:58:18;;;;;;;24.15;9.88;;;4.80;94.50;;;;;;4938311;29;20188;-84
2021/03/19 10:01:26;;;;;;;29.38;11.75;;;4.90;93.70;;;;;;4940362;29;20196;-84
2021/03/19 10:04:06;;;;;;;26.63;11.32;;;5.00;91.40;;;;;;4940192;29;20187;-84
2021/03/19 10:06:46;;;;;;;26.15;10.50;;;5.10;92.80;;;;;;4940421;29;20260;-84
2021/03/19 10:09:19;;;;;;;20.15;9.80;;;5.20;89.50;;;;;;4939908;29;20397;-84
2021/03/19 10:11:59;;;;;;;26.10;10.63;;;5.40;90.10;;;;;;4940282;29;20233;-84
2021/03/19 10:14:32;;;;;;;25.20;11.13;;;5.60;89.40;;;;;;4940322;29;20180;-84
2021/03/19 10:17:09;;;;;;;23.90;9.90;;;5.60;88.00;;;;;;4940864;29;20179;-85
2021/03/19 10:19:38;;;;;;;27.27;11.82;;;5.80;89.50;;;;;;4940445;29;20160;-85
2021/03/19 10:22:06;;;;;;;20.92;10.30;;;6.00;90.10;;;;;;4939694;29;20193;-85
2021/03/19 10:24:32;;;;;;;20.27;8.95;;;6.20;87.70;;;;;;4939881;29;20172;-85
2021/03/19 10:27:08;;;;;;;20.05;9.32;;;6.50;86.40;;;;;;4939698;29;20589;-84
2021/03/19 10:29:37;;;;;;;17.55;8.18;;;6.60;85.20;;;;;;4939939;29;20168;-85
2021/03/19 10:32:11;;;;;;;21.70;9.07;;;6.80;82.10;;;;;;4950834;28;20219;-85
2021/03/19 10:34:44;;;;;;;17.45;8.52;;;6.80;84.80;;;;;;4958826;28;20629;-85
2021/03/19 10:37:18;;;;;;;21.70;8.95;;;6.90;82.00;;;;;;4958585;28;20350;-85
2021/03/19 10:40:06;;;;;;;17.80;8.43;;;6.90;81.90;;;;;;4958569;28;20230;-85
2021/03/19 10:42:41;;;;;;;17.98;8.82;;;6.80;79.60;;;;;;4958324;28;20250;-85
2021/03/19 10:45:28;;;;;;;17.23;8.73;;;6.70;80.80;;;;;;4958695;28;20155;-85
2021/03/19 10:48:06;;;;;;;18.08;7.72;;;6.50;82.60;;;;;;4958625;28;20196;-85
2021/03/19 10:50:45;;;;;;;20.13;9.18;;;6.50;83.10;;;;;;4958372;28;20595;-85
2021/03/19 10:53:17;;;;;;;18.65;8.23;;;6.20;85.20;;;;;;4958603;28;20171;-85
2021/03/19 10:55:48;;;;;;;19.08;8.80;;;5.90;88.10;;;;;;4958497;28;20176;-85
2021/03/19 10:58:26;;;;;;;19.38;8.73;;;5.80;89.20;;;;;;4958275;28;20597;-85
2021/03/19 11:00:53;;;;;;;18.98;9.68;;;5.80;90.40;;;;;;4958213;28;20195;-85
2021/03/19 11:03:31;;;;;;;17.67;8.40;;;5.60;90.30;;;;;;4957976;28;20188;-85
2021/03/19 11:06:02;;;;;;;15.50;8.10;;;5.50;91.20;;;;;;4958307;28;20168;-85
2021/03/19 11:08:27;;;;;;;16.42;8.02;;;5.60;91.40;;;;;;4958264;28;20200;-83
2021/03/19 11:10:54;;;;;;;13.90;7.27;;;5.50;90.40;;;;;;4957976;28;20250;-83
2021/03/19 11:13:29;;;;;;;16.08;7.47;;;5.30;89.80;;;;;;4958879;28;20419;-83
2021/03/19 11:15:58;;;;;;;11.60;5.70;;;5.40;90.60;;;;;;4958265;28;20255;-83
2021/03/19 11:18:34;;;;;;;14.98;6.57;;;5.40;89.60;;;;;;4958287;28;20176;-82
2021/03/19 11:21:06;;;;;;;14.18;7.10;;;5.40;90.40;;;;;;4958069;28;20298;-83
2021/03/19 11:23:48;;;;;;;10.18;5.38;;;5.30;88.30;;;;;;4958401;28;20187;-83
2021/03/19 11:26:28;;;;;;;8.85;5.00;;;5.30;88.90;;;;;;4958209;28;20536;-83
2021/03/19 11:29:09;;;;;;;10.93;5.20;;;5.20;89.40;;;;;;4958459;28;20208;-83
2021/03/19 11:32:01;;;;;;;8.98;4.32;;;5.30;90.60;;;;;;4957865;28;20258;-83
2021/03/19 11:34:56;;;;;;;7.20;4.50;;;5.30;88.80;;;;;;4958233;28;20653;-82
2021/03/19 11:37:23;;;;;;;9.20;4.38;;;5.30;88.40;;;;;;4947394;28;20181;-82
2021/03/19 11:39:58;;;;;;;11.05;4.88;;;5.20;86.90;;;;;;4939638;29;20171;-80
2021/03/19 11:42:32;;;;;;;10.88;5.78;;;5.30;88.40;;;;;;4938465;29;20280;-83
2021/03/19 11:45:02;;;;;;;9.63;5.05;;;5.40;87.10;;;;;;4938650;29;20171;-84
2021/03/19 11:47:34;;;;;;;9.25;5.80;;;5.50;87.10;;;;;;4938201;29;20232;-83
2021/03/19 11:50:15;;;;;;;12.55;5.78;;;5.40;83.90;;;;;;4938411;29;20180;-84
2021/03/19 11:52:41;;;;;;;17.38;6.15;;;5.40;86.30;;;;;;4938355;29;20196;-85
2021/03/19 11:55:07;;;;;;;16.77;7.13;;;5.30;84.60;;;;;;4938503;29;20169;-84
2021/03/19 11:57:33;;;;;;;17.60;7.22;;;5.30;84.40;;;;;;4939697;29;20180;-85
2021/03/19 11:59:58;;;;;;;19.60;7.43;;;5.30;85.20;;;;;;4939649;29;20597;-86
2021/03/19 12:02:53;;;;;;;13.83;6.50;;;5.30;83.10;;;;;;4939414;29;21019;-87
2021/03/19 12:05:20;;;;;;;21.33;7.25;;;5.40;86.70;;;;;;4938740;29;20454;-86
2021/03/19 12:07:46;;;;;;;12.95;7.18;;;5.30;83.30;;;;;;4940030;29;20890;-83
2021/03/19 12:10:13;;;;;;;15.88;7.03;;;5.30;83.90;;;;;;4940177;29;20211;-84
2021/03/19 12:12:39;;;;;;;13.55;6.32;;;5.30;83.90;;;;;;4938848;29;20200;-84
2021/03/19 12:15:08;;;;;;;19.98;7.20;;;5.10;83.10;;;;;;4956986;29;20161;-80
2021/03/19 12:17:34;;;;;;;13.05;7.10;;;5.00;83.40;;;;;;4955519;28;20181;-83
2021/03/19 12:20:00;;;;;;;17.30;7.35;;;5.00;84.40;;;;;;4938861;29;20180;-83
2021/03/19 12:22:26;;;;;;;15.10;7.07;;;5.00;84.50;;;;;;4958619;28;20195;-84
2021/03/19 12:24:52;;;;;;;17.83;7.00;;;5.10;85.90;;;;;;4951170;28;20478;-84
2021/03/19 12:27:20;;;;;;;16.33;6.47;;;5.10;84.50;;;;;;4946718;28;20172;-84
2021/03/19 12:29:46;;;;;;;19.05;8.10;;;5.20;85.60;;;;;;4957138;28;20412;-84
2021/03/19 12:32:12;;;;;;;17.07;7.20;;;5.20;85.30;;;;;;4957205;28;20254;-83
2021/03/19 12:34:39;;;;;;;18.57;8.20;;;5.20;83.10;;;;;;4957071;28;20222;-84
2021/03/19 12:37:05;;;;;;;23.98;9.20;;;5.10;83.40;;;;;;4951551;29;20417;-84
2021/03/19 12:39:30;;;;;;;19.20;8.40;;;4.80;83.90;;;;;;4938204;29;20192;-83
2021/03/19 12:41:56;;;;;;;14.67;7.87;;;4.70;84.50;;;;;;4938336;29;20540;-83
2021/03/19 12:44:22;;;;;;;24.23;9.67;;;4.70;85.10;;;;;;4938045;29;20176;-84
2021/03/19 12:46:49;;;;;;;23.33;9.67;;;4.70;85.90;;;;;;4938433;29;20458;-84
2021/03/19 12:49:15;;;;;;;20.17;9.98;;;4.90;86.90;;;;;;4938202;29;20460;-84
2021/03/19 12:51:41;;;;;;;23.35;9.05;;;5.00;85.10;;;;;;4938139;29;20215;-84
2021/03/19 12:54:07;;;;;;;23.93;8.33;;;5.00;83.70;;;;;;4937810;29;20173;-84
2021/03/19 12:56:33;;;;;;;17.38;7.25;;;5.00;83.10;;;;;;4939126;29;20450;-84
2021/03/19 12:58:59;;;;;;;24.87;9.63;;;5.00;83.10;;;;;;4939791;29;20649;-84
2021/03/19 13:01:25;;;;;;;20.40;9.87;;;4.90;83.30;;;;;;4943738;29;20440;-84
2021/03/19 13:03:51;;;;;;;24.58;9.88;;;4.90;84.10;;;;;;4945318;29;20423;-85
2021/03/19 13:06:19;;;;;;;24.90;10.93;;;4.90;84.40;;;;;;4944583;29;20549;-84
2021/03/19 13:08:45;;;;;;;32.88;11.88;;;4.90;84.10;;;;;;4943942;29;20231;-84
2021/03/19 13:11:13;;;;;;;28.90;11.15;;;4.80;84.40;;;;;;4943557;29;20197;-85
2021/03/19 13:13:39;;;;;;;35.83;12.50;;;4.70;85.20;;;;;;4944021;29;20263;-84
2021/03/19 13:16:06;;;;;;;29.05;12.13;;;4.70;85.20;;;;;;4943897;29;20169;-84